Airfield :
LOGIN :

Register | Disclaimer

   EN    FR    IT 

 










Legend :    VFR   Marginal VFR   IFR   Intensive IFR   Very Intensive IFR
Visi :
Ceiling :
>= 8 km
>= 3000ft
5 to 8 km
1000 to 3000 ft
1500m to 5 km
500 to 1000 ft
800 to 1500m
200 to 500 ft
< 800m
< 200 ft
Symbols :   Thunderstorms  Fog  Heavy snow  Heavy precipitations  Wind > 20 kt
SIGMETs :     Misc.  Thunderstorms  Icing  Turbulence  Mountain Waves  Volcanic Ashes







- Airport Elevation : 36 ft
- IATA code : LTQ
- Download approach charts


LFAT - Le Touquet

CURRENT METAR :
  • 181200Z AUTO 28010KT 250V310 9999 BKN021 BKN037 OVC045 11/06 Q1023 BECMG 4000 RA OVC013

EXPIRED METARs :
  • 181130Z AUTO 29008KT 260V330 9999 BKN023 BKN044 10/06 Q1024 BECMG 4000 RA OVC013
  • 181100Z AUTO 29008KT 250V310 9999 FEW022 OVC041 10/05 Q1024 NOSIG
  • 181030Z AUTO 29009KT 260V320 9999 OVC037 10/05 Q1024 NOSIG
  • 181000Z AUTO 30009KT 270V340 9999 FEW025 OVC039 10/05 Q1024 NOSIG
  • 180930Z AUTO 31010KT 270V340 9999 SCT027 BKN035 OVC044 09/04 Q1024 NOSIG

TAF TAF LFAT
Valid from the 18 at 12:00 until the 18 at 21:00 UTC


181100Z 1812/1821 30010KT 9999 BKN030
BECMG 1813/1815 4000 RA OVC013
TEMPO 1817/1820 30015G25KT 2000 BKN005 OVC013TCU
ATIS : +33 3 21 06 62 84
No reported NOTAMs for that airfield.



MET'MAP, your aeronautical weather chart ! - Copyright ORBIFLY December 2007 - Disclaimer

ORBIFLY MET'MAP TEAM :

Programming & Development : Alexandra Zaïnal
Concept & Development : Baudouin d'Aumeries
Co-Development & Prog : Marc-Olivier Méhu
Technical & hardware support : Manuel Goepfert

Contact : metmap@orbifly.com




SOURCES & CREDITS :

   NOAA